Airport View

Enter AWOS ICAO identifier for current METAR.

ex. KFNL

KAVC 261135Z AUTO 34005KT 10SM SCT070 22/18 A3017 RMK AO2 T02150184

26 Jun 2019 11:48

Frequency: 127.525

Phone: 434-729-2229

Other Area AWOS: KLVL - KW31 - KCXE - KBKT

TAF KRWI 260523Z 2606/2706 VRB03KT P6SM BKN250 FM261800 01005KT P6SM SCT250